createdAt,value
2022-07-28T00:01:11.392Z,100.00
2022-07-28T00:03:40.911Z,100.00
2022-07-28T00:06:09.771Z,100.00
2022-07-28T00:08:37.724Z,100.00
2022-07-28T00:11:05.540Z,100.00
2022-07-28T00:13:33.333Z,100.00
2022-07-28T00:16:01.235Z,100.00
2022-07-28T00:18:29.134Z,100.00
2022-07-28T00:20:58.998Z,100.00
2022-07-28T00:23:39.221Z,100.00
2022-07-28T00:26:07.994Z,100.00
2022-07-28T00:28:35.815Z,100.00
2022-07-28T00:31:05.023Z,100.00
2022-07-28T00:33:34.284Z,100.00
2022-07-28T00:36:03.859Z,100.00
2022-07-28T00:38:32.012Z,100.00
2022-07-28T00:41:15.002Z,100.00
2022-07-28T00:43:44.080Z,100.00
2022-07-28T00:46:11.999Z,100.00
2022-07-28T00:48:40.088Z,100.00
2022-07-28T00:51:10.029Z,100.00
2022-07-28T00:53:38.229Z,100.00
2022-07-28T00:56:07.142Z,100.00
2022-07-28T00:58:35.312Z,100.00
2022-07-28T01:01:03.169Z,100.00
2022-07-28T01:03:31.031Z,100.00
2022-07-28T01:06:04.024Z,100.00
2022-07-28T01:08:41.649Z,100.00
2022-07-28T01:11:12.914Z,100.00
2022-07-28T01:13:44.005Z,100.00
2022-07-28T01:16:11.930Z,100.00
2022-07-28T01:18:43.212Z,100.00
2022-07-28T01:21:13.185Z,100.00
2022-07-28T01:23:59.855Z,100.00
2022-07-28T01:26:49.392Z,100.00
2022-07-28T01:29:43.227Z,100.00
2022-07-28T01:32:15.972Z,100.00
2022-07-28T01:34:46.723Z,100.00
2022-07-28T01:37:17.255Z,100.00
2022-07-28T01:39:45.161Z,100.00
2022-07-28T01:42:14.139Z,100.00
2022-07-28T01:44:42.979Z,100.00
2022-07-28T01:47:12.232Z,100.00
2022-07-28T01:49:40.061Z,100.00
2022-07-28T01:52:08.623Z,100.00
2022-07-28T01:54:38.066Z,100.00
2022-07-28T01:57:06.125Z,100.00
2022-07-28T01:59:36.207Z,100.00
2022-07-28T02:02:04.078Z,100.00
2022-07-28T02:04:33.684Z,100.00
2022-07-28T02:07:01.517Z,100.00
2022-07-28T02:09:29.420Z,100.00
2022-07-28T02:11:57.222Z,100.00
2022-07-28T02:14:25.974Z,100.00
2022-07-28T02:16:55.722Z,100.00
2022-07-28T02:19:23.854Z,100.00
2022-07-28T02:21:53.107Z,100.00
2022-07-28T02:24:22.331Z,100.00
2022-07-28T02:26:51.952Z,100.00
2022-07-28T02:29:48.055Z,100.00
2022-07-28T02:32:23.997Z,100.00
2022-07-28T02:34:59.528Z,100.00
2022-07-28T02:37:28.755Z,100.00
2022-07-28T02:40:00.228Z,100.00
2022-07-28T02:42:30.004Z,100.00
2022-07-28T02:44:59.548Z,100.00
2022-07-28T02:47:30.090Z,100.00
2022-07-28T02:49:58.393Z,100.00
2022-07-28T02:52:27.895Z,100.00
2022-07-28T02:54:56.152Z,100.00
2022-07-28T02:57:23.928Z,100.00
2022-07-28T02:59:51.757Z,100.00
2022-07-28T03:02:19.986Z,100.00
2022-07-28T03:05:01.747Z,100.00
2022-07-28T03:07:32.214Z,100.00
2022-07-28T03:10:00.280Z,100.00
2022-07-28T03:12:28.062Z,100.00
2022-07-28T03:14:56.181Z,100.00
2022-07-28T03:17:23.938Z,100.00
2022-07-28T03:19:51.712Z,100.00
2022-07-28T03:22:19.529Z,100.00
2022-07-28T03:24:50.895Z,100.00
2022-07-28T03:27:21.884Z,100.00
2022-07-28T03:29:51.081Z,100.00
2022-07-28T03:32:19.398Z,100.00
2022-07-28T03:34:47.430Z,100.00
2022-07-28T03:37:17.317Z,100.00
2022-07-28T03:39:46.953Z,100.00
2022-07-28T03:42:17.095Z,100.00
2022-07-28T03:44:45.656Z,100.00
2022-07-28T03:47:13.500Z,100.00
2022-07-28T03:49:41.442Z,100.00
2022-07-28T03:52:09.851Z,100.00
2022-07-28T03:54:37.590Z,100.00
2022-07-28T03:57:05.549Z,100.00
2022-07-28T03:59:35.091Z,100.00
2022-07-28T04:02:02.928Z,100.00
2022-07-28T04:04:31.027Z,100.00
2022-07-28T04:06:58.758Z,100.00
2022-07-28T04:09:26.557Z,100.00
2022-07-28T04:11:54.411Z,100.00
2022-07-28T04:14:22.548Z,100.00
2022-07-28T04:16:52.320Z,100.00
2022-07-28T04:19:20.200Z,100.00
2022-07-28T04:21:48.038Z,100.00
2022-07-28T04:24:16.036Z,100.00
2022-07-28T04:26:44.211Z,100.00
2022-07-28T04:29:12.154Z,100.00
2022-07-28T04:31:40.174Z,100.00
2022-07-28T04:34:09.900Z,100.00
2022-07-28T04:36:42.068Z,100.00
2022-07-28T04:39:11.134Z,100.00
2022-07-28T04:41:39.638Z,100.00
2022-07-28T04:44:07.481Z,100.00
2022-07-28T04:46:35.923Z,100.00
2022-07-28T04:49:04.188Z,100.00
2022-07-28T04:51:33.462Z,100.00
2022-07-28T04:54:01.519Z,100.00
2022-07-28T04:56:29.370Z,100.00
2022-07-28T04:58:58.542Z,100.00
2022-07-28T05:01:28.601Z,100.00
2022-07-28T05:03:56.410Z,100.00
2022-07-28T05:06:24.663Z,100.00
2022-07-28T05:08:54.040Z,100.00
2022-07-28T05:11:22.032Z,100.00
2022-07-28T05:13:49.757Z,100.00
2022-07-28T05:16:17.582Z,100.00
2022-07-28T05:18:45.434Z,100.00
2022-07-28T05:21:13.287Z,100.00
2022-07-28T05:23:47.482Z,100.00
2022-07-28T05:26:16.866Z,100.00
2022-07-28T05:28:44.666Z,100.00
2022-07-28T05:31:12.484Z,100.00
2022-07-28T05:33:40.367Z,100.00
2022-07-28T05:36:09.395Z,100.00
2022-07-28T05:38:37.169Z,100.00
2022-07-28T05:41:06.528Z,100.00
2022-07-28T05:43:38.453Z,100.00
2022-07-28T05:46:07.030Z,100.00
2022-07-28T05:48:35.377Z,100.00
2022-07-28T05:51:03.934Z,100.00
2022-07-28T05:53:31.713Z,100.00
2022-07-28T05:56:00.677Z,100.00
2022-07-28T05:58:29.573Z,100.00
2022-07-28T06:01:01.079Z,100.00
2022-07-28T06:03:30.623Z,100.00
2022-07-28T06:06:13.860Z,100.00
2022-07-28T06:08:43.441Z,100.00
2022-07-28T06:11:11.792Z,100.00
2022-07-28T06:13:48.956Z,100.00
2022-07-28T06:16:18.750Z,100.00
2022-07-28T06:18:46.535Z,100.00
2022-07-28T06:21:14.402Z,100.00
2022-07-28T06:23:42.284Z,100.00
2022-07-28T06:26:10.052Z,100.00
2022-07-28T06:28:38.691Z,100.00
2022-07-28T06:31:06.629Z,100.00
2022-07-28T06:33:35.828Z,100.00
2022-07-28T06:36:03.660Z,100.00
2022-07-28T06:38:32.133Z,100.00
2022-07-28T06:41:00.270Z,100.00
2022-07-28T06:43:28.501Z,100.00
2022-07-28T06:45:56.381Z,100.00
2022-07-28T06:48:28.749Z,100.00
2022-07-28T06:50:59.776Z,100.00
2022-07-28T06:53:33.605Z,100.00
2022-07-28T06:56:02.062Z,100.00
2022-07-28T06:58:29.831Z,100.00
2022-07-28T07:00:57.679Z,100.00
2022-07-28T07:03:25.620Z,100.00
2022-07-28T07:05:53.751Z,100.00
2022-07-28T07:08:23.023Z,100.00
2022-07-28T07:10:50.990Z,100.00
2022-07-28T07:13:18.714Z,100.00
2022-07-28T07:15:46.915Z,100.00
2022-07-28T07:18:14.713Z,100.00
2022-07-28T07:20:42.514Z,100.00
2022-07-28T07:23:10.256Z,100.00
2022-07-28T07:25:39.649Z,100.00
2022-07-28T07:28:07.374Z,100.00
2022-07-28T07:30:35.179Z,100.00
2022-07-28T07:33:03.264Z,100.00
2022-07-28T07:35:37.835Z,100.00
2022-07-28T07:38:05.852Z,100.00
2022-07-28T07:40:33.636Z,100.00
2022-07-28T07:43:02.827Z,100.00
2022-07-28T07:45:30.628Z,100.00
2022-07-28T07:47:58.764Z,100.00
2022-07-28T07:50:26.501Z,100.00
2022-07-28T07:52:54.270Z,100.00
2022-07-28T07:55:22.134Z,100.00
2022-07-28T07:57:50.216Z,100.00
2022-07-28T08:00:29.181Z,100.00
2022-07-28T08:02:57.485Z,100.00
2022-07-28T08:05:34.612Z,100.00
2022-07-28T08:08:04.883Z,100.00
2022-07-28T08:10:32.703Z,100.00
2022-07-28T08:13:00.762Z,100.00
2022-07-28T08:15:30.576Z,100.00
2022-07-28T08:17:58.442Z,100.00
2022-07-28T08:20:26.510Z,100.00
2022-07-28T08:22:56.086Z,100.00
2022-07-28T08:25:24.007Z,100.00
2022-07-28T08:27:51.877Z,100.00
2022-07-28T08:30:23.681Z,100.00
2022-07-28T08:32:56.342Z,100.00
2022-07-28T08:35:34.557Z,100.00
2022-07-28T08:38:04.177Z,100.00
2022-07-28T08:40:32.943Z,100.00
2022-07-28T08:43:04.269Z,100.00
2022-07-28T08:45:32.519Z,100.00
2022-07-28T08:48:09.389Z,100.00
2022-07-28T08:50:41.851Z,100.00
2022-07-28T08:53:10.053Z,100.00
2022-07-28T08:55:37.814Z,100.00
2022-07-28T08:58:06.166Z,100.00
2022-07-28T09:01:04.312Z,100.00
2022-07-28T09:03:34.391Z,100.00
2022-07-28T09:06:02.243Z,100.00
2022-07-28T09:08:30.084Z,100.00
2022-07-28T09:10:57.815Z,100.00
2022-07-28T09:13:25.845Z,100.00
2022-07-28T09:15:53.680Z,100.00
2022-07-28T09:18:23.187Z,100.00
2022-07-28T09:20:52.404Z,100.00
2022-07-28T09:23:43.004Z,100.00
2022-07-28T09:26:12.621Z,100.00
2022-07-28T09:28:51.153Z,100.00
2022-07-28T09:31:20.736Z,100.00
2022-07-28T09:34:01.497Z,100.00
2022-07-28T09:36:31.299Z,100.00
2022-07-28T09:38:59.367Z,100.00
2022-07-28T09:41:30.646Z,100.00
2022-07-28T09:44:13.538Z,100.00
2022-07-28T09:46:44.807Z,100.00
2022-07-28T09:49:16.079Z,100.00
2022-07-28T09:51:45.817Z,100.00
2022-07-28T09:54:14.959Z,100.00
2022-07-28T09:56:44.364Z,99.31
2022-07-28T09:59:12.843Z,98.38
2022-07-28T10:01:56.847Z,97.35
2022-07-28T10:04:34.990Z,98.22
2022-07-28T10:07:05.628Z,99.77
2022-07-28T10:09:33.630Z,98.32
2022-07-28T10:12:17.748Z,98.03
2022-07-28T10:14:46.357Z,95.96
2022-07-28T10:17:23.902Z,96.80
2022-07-28T10:19:54.245Z,97.17
2022-07-28T10:22:23.745Z,96.19
2022-07-28T10:24:52.892Z,95.92
2022-07-28T10:27:21.694Z,95.02
2022-07-28T10:29:51.178Z,95.05
2022-07-28T10:32:19.257Z,95.04
2022-07-28T10:34:52.284Z,93.53
2022-07-28T10:37:21.767Z,91.99
2022-07-28T10:39:53.428Z,93.65
2022-07-28T10:42:21.298Z,95.61
2022-07-28T10:44:49.126Z,94.99
2022-07-28T10:47:18.522Z,94.11
2022-07-28T10:49:48.723Z,90.86
2022-07-28T10:52:37.770Z,91.47
2022-07-28T10:55:11.053Z,93.50
2022-07-28T10:57:42.802Z,92.05
2022-07-28T11:00:17.618Z,93.84
2022-07-28T11:02:51.333Z,93.88
2022-07-28T11:05:44.063Z,91.16
2022-07-28T11:08:28.548Z,90.55
2022-07-28T11:11:07.775Z,90.68
2022-07-28T11:13:41.254Z,90.97
2022-07-28T11:16:22.066Z,91.80
2022-07-28T11:19:07.701Z,92.25
2022-07-28T11:22:22.410Z,89.61
2022-07-28T11:25:22.359Z,89.97
2022-07-28T11:28:07.720Z,88.99
2022-07-28T11:30:54.688Z,90.70
2022-07-28T11:33:24.983Z,90.58
2022-07-28T11:35:59.853Z,91.42
2022-07-28T11:38:28.078Z,91.05
2022-07-28T11:40:57.387Z,88.29
2022-07-28T11:43:36.322Z,88.82
2022-07-28T11:46:37.432Z,88.09
2022-07-28T11:49:29.852Z,85.86
2022-07-28T11:52:27.842Z,86.80
2022-07-28T11:54:56.766Z,87.82
2022-07-28T11:57:26.028Z,87.87
2022-07-28T12:00:06.957Z,88.85
2022-07-28T12:02:36.231Z,87.55
2022-07-28T12:05:09.787Z,90.15
2022-07-28T12:07:39.610Z,89.96
2022-07-28T12:10:54.032Z,89.79
2022-07-28T12:13:32.855Z,91.32
2022-07-28T12:16:02.118Z,91.10
2022-07-28T12:18:30.167Z,92.54
2022-07-28T12:21:03.055Z,90.57
2022-07-28T12:23:45.434Z,91.41
2022-07-28T12:26:14.720Z,90.04
2022-07-28T12:28:50.460Z,89.50
2022-07-28T12:31:19.785Z,93.12
2022-07-28T12:33:47.723Z,90.55
2022-07-28T12:36:19.011Z,90.30
2022-07-28T12:38:46.910Z,89.65
2022-07-28T12:41:16.660Z,87.04
2022-07-28T12:43:50.507Z,88.58
2022-07-28T12:46:22.754Z,86.70
2022-07-28T12:48:53.629Z,86.84
2022-07-28T12:51:39.248Z,87.46
2022-07-28T12:54:08.848Z,88.17
2022-07-28T12:56:45.748Z,87.86
2022-07-28T12:59:18.283Z,87.96
2022-07-28T13:01:51.534Z,87.97
2022-07-28T13:04:41.330Z,85.56
2022-07-28T13:07:10.891Z,86.75
2022-07-28T13:09:41.710Z,87.34
2022-07-28T13:12:22.304Z,87.49
2022-07-28T13:14:52.206Z,87.02
2022-07-28T13:17:21.810Z,87.16
2022-07-28T13:19:50.485Z,86.81
2022-07-28T13:22:26.756Z,86.57
2022-07-28T13:24:54.526Z,86.33
2022-07-28T13:27:22.642Z,86.34
2022-07-28T13:29:50.939Z,84.87
2022-07-28T13:32:18.877Z,83.18
2022-07-28T13:34:48.582Z,83.25
2022-07-28T13:37:16.377Z,83.97
2022-07-28T13:39:49.538Z,86.30
2022-07-28T13:42:20.432Z,84.37
2022-07-28T13:44:52.711Z,83.95
2022-07-28T13:47:20.972Z,82.38
2022-07-28T13:49:50.631Z,85.25
2022-07-28T13:52:33.312Z,85.29
2022-07-28T13:55:06.002Z,84.72
2022-07-28T13:57:36.692Z,86.44
2022-07-28T14:00:08.000Z,84.71
2022-07-28T14:02:36.233Z,85.80
2022-07-28T14:05:12.642Z,86.38
2022-07-28T14:07:48.794Z,83.76
2022-07-28T14:10:48.928Z,87.36
2022-07-28T14:13:31.478Z,82.85
2022-07-28T14:16:09.812Z,85.31
2022-07-28T14:18:41.982Z,85.79
2022-07-28T14:21:11.283Z,85.20
2022-07-28T14:23:39.343Z,84.60
2022-07-28T14:26:34.614Z,84.18
2022-07-28T14:28:55.463Z,83.00
2022-07-28T14:31:23.564Z,81.37
2022-07-28T14:33:54.641Z,82.06
2022-07-28T14:36:24.131Z,81.33
2022-07-28T14:38:53.932Z,80.93
2022-07-28T14:41:22.363Z,82.63
2022-07-28T14:43:51.394Z,82.95
2022-07-28T14:46:29.645Z,82.80
2022-07-28T14:48:58.054Z,85.16
2022-07-28T14:51:27.338Z,82.98
2022-07-28T14:53:57.036Z,83.39
2022-07-28T14:56:24.875Z,83.03
2022-07-28T14:58:52.916Z,84.32
2022-07-28T15:01:23.887Z,85.07
2022-07-28T15:03:55.691Z,83.75
2022-07-28T15:06:23.872Z,84.08
2022-07-28T15:08:55.106Z,85.06
2022-07-28T15:11:23.080Z,84.60
2022-07-28T15:13:57.050Z,84.75
2022-07-28T15:16:28.677Z,84.48
2022-07-28T15:18:57.282Z,84.54
2022-07-28T15:21:25.090Z,85.92
2022-07-28T15:23:54.324Z,87.01
2022-07-28T15:26:22.090Z,86.15
2022-07-28T15:28:50.103Z,86.62
2022-07-28T15:31:18.099Z,86.98
2022-07-28T15:33:51.681Z,86.64
2022-07-28T15:36:25.913Z,87.43
2022-07-28T20:38:39.639Z,89.05
2022-07-28T20:41:08.398Z,92.22
2022-07-28T20:43:37.617Z,94.09
2022-07-28T20:46:06.391Z,94.76
2022-07-28T20:48:35.175Z,95.20
2022-07-28T20:51:03.460Z,96.16
2022-07-28T20:53:31.782Z,96.42
2022-07-28T20:56:01.713Z,97.04
2022-07-28T20:58:30.161Z,97.29
2022-07-28T21:00:58.784Z,97.93
2022-07-28T21:03:27.403Z,98.42
2022-07-28T21:05:55.702Z,98.78
2022-07-28T21:08:24.624Z,99.36
2022-07-28T21:10:52.955Z,99.42
2022-07-28T21:13:23.052Z,99.79
2022-07-28T21:15:51.365Z,100.00
2022-07-28T21:18:19.660Z,100.00
2022-07-28T21:20:48.284Z,100.00
2022-07-28T21:23:17.994Z,100.00
2022-07-28T21:25:46.873Z,100.00
2022-07-28T21:28:28.944Z,100.00
2022-07-28T21:30:58.692Z,100.00
2022-07-28T21:33:28.018Z,100.00
2022-07-28T21:35:56.500Z,100.00
2022-07-28T21:38:24.808Z,100.00
2022-07-28T21:40:53.120Z,100.00
2022-07-28T21:43:21.454Z,100.00
2022-07-28T21:45:50.108Z,100.00
2022-07-28T21:48:23.469Z,100.00
2022-07-28T21:50:51.767Z,100.00
2022-07-28T21:53:20.071Z,100.00
2022-07-28T21:55:48.831Z,100.00
2022-07-28T21:58:17.529Z,100.00
2022-07-28T22:00:45.816Z,100.00
2022-07-28T22:03:14.031Z,100.00
2022-07-28T22:05:49.079Z,100.00
2022-07-28T22:08:18.456Z,100.00
2022-07-28T22:10:46.887Z,100.00
2022-07-28T22:13:18.709Z,100.00
2022-07-28T22:15:47.244Z,100.00
2022-07-28T22:18:16.888Z,100.00
2022-07-28T22:20:46.759Z,100.00
2022-07-28T22:23:29.154Z,100.00
2022-07-28T22:25:58.172Z,100.00
2022-07-28T22:28:29.840Z,100.00
2022-07-28T22:30:59.076Z,100.00
2022-07-28T22:33:37.961Z,100.00
2022-07-28T22:36:08.725Z,100.00
2022-07-28T22:38:37.156Z,100.00
2022-07-28T22:41:05.513Z,100.00
2022-07-28T22:43:35.142Z,100.00
2022-07-28T22:46:03.849Z,100.00
2022-07-28T22:48:32.505Z,100.00
2022-07-28T22:51:00.773Z,100.00
2022-07-28T22:53:30.513Z,100.00
2022-07-28T22:58:42.465Z,100.00
2022-07-28T23:01:10.882Z,100.00
2022-07-28T23:03:39.356Z,100.00
2022-07-28T23:06:08.282Z,100.00
2022-07-28T23:08:37.979Z,100.00
2022-07-28T23:11:06.681Z,100.00
2022-07-28T23:13:35.011Z,100.00
2022-07-28T23:16:03.739Z,100.00
2022-07-28T23:18:32.126Z,100.00
2022-07-28T23:21:00.463Z,100.00
2022-07-28T23:23:29.164Z,100.00
2022-07-28T23:25:58.958Z,100.00
2022-07-28T23:28:29.091Z,100.00
2022-07-28T23:30:57.662Z,100.00
2022-07-28T23:33:54.381Z,100.00
2022-07-28T23:36:25.839Z,100.00
2022-07-28T23:38:56.084Z,100.00
2022-07-28T23:41:25.815Z,100.00
2022-07-28T23:43:54.180Z,100.00
2022-07-28T23:46:23.538Z,100.00
2022-07-28T23:48:52.215Z,100.00
2022-07-28T23:51:21.396Z,100.00
2022-07-28T23:53:54.316Z,100.00
2022-07-28T23:56:25.991Z,100.00
2022-07-28T23:58:54.604Z,100.00
